Inicio METAR Ruta Wind Satelite

Informe Meteorológico

Fecha: 2020/07/02 01:22:12 Local
2020.07.02 06:22 UTC


Estado: VENCIDO
Operación:VFR
Riohacha / Almirante Padilla, Colombia (SKRH) 11-32N 072-56W 4M
2020.07.01 2000 UTC
Wind: from the SW (230 degrees) at 12 MPH (10 KT):0
Visibility: greater than 7 mile(s):0
Sky conditions: mostly cloudy
Temperature: 93 F (34 C)
Heat index: 104.5 F (40.3 C):1
Dew Point: 75 F (24 C)
Relative Humidity: 56%
Pressure (altimeter): 29.78 in. Hg (1008 hPa)
ob: SKRH 012000Z 23010KT 9999 FEW020 BKN200 34/24 A2978
cycle: 20

SKRH 011400Z 11015KT 9999 FEW020 BKN200 32/21 A2984
SKRH 011300Z 10014KT 9999 FEW015 BKN200 30/22 A2985
SKRH 011200Z 10008KT 9999 SCT015 BKN200 28/23 A2985